Time;durP1;ratioP1;P1;durP2;ratioP2;P2;SDS_P1;SDS_P2;PMS_P1;PMS_P2;Temp;Humidity;BMP_temperature;BMP_pressure;BME280_temperature;BME280_humidity;BME280_pressure;Samples;Min_cycle;Max_cycle;Signal;HPM_P1;HPM_P2
2021/12/11 00:01:24;;;;;;;1.13;1.13;;;1.10;99.90;;;;;;5284668;28;20344;-78
2021/12/11 00:04:06;;;;;;;2.20;2.10;;;1.10;99.90;;;;;;5283465;28;20027;-77
2021/12/11 00:06:45;;;;;;;0.93;0.93;;;1.00;99.90;;;;;;5272885;28;20028;-76
2021/12/11 00:09:28;;;;;;;0.57;0.57;;;1.00;99.90;;;;;;5284688;28;20133;-77
2021/12/11 00:12:12;;;;;;;0.40;0.40;;;1.10;99.90;;;;;;5259278;28;20028;-77
2021/12/11 00:14:51;;;;;;;1.63;0.95;;;1.10;99.90;;;;;;5270301;28;20038;-77
2021/12/11 00:17:30;;;;;;;1.58;1.48;;;1.00;99.90;;;;;;5265418;28;20088;-76
2021/12/11 00:20:14;;;;;;;1.05;1.05;;;1.00;99.90;;;;;;5265658;28;20481;-77
2021/12/11 00:22:49;;;;;;;0.70;0.70;;;0.90;99.90;;;;;;5261569;28;20028;-77
2021/12/11 00:25:20;;;;;;;0.50;0.50;;;1.00;99.90;;;;;;5264728;28;20023;-79
2021/12/11 00:28:00;;;;;;;1.25;1.25;;;0.90;99.90;;;;;;5279197;28;20047;-77
2021/12/11 00:30:38;;;;;;;0.70;0.70;;;1.00;99.90;;;;;;5254023;28;20649;-77
2021/12/11 00:33:19;;;;;;;0.93;0.93;;;1.00;99.90;;;;;;5263656;28;20027;-76
2021/12/11 00:35:52;;;;;;;0.55;0.55;;;1.00;99.90;;;;;;5279711;28;20462;-77
2021/12/11 00:38:33;;;;;;;0.50;0.50;;;0.90;99.90;;;;;;5282419;28;20031;-78
2021/12/11 00:41:08;;;;;;;0.70;0.70;;;1.00;99.90;;;;;;5257961;28;20035;-78
2021/12/11 00:43:44;;;;;;;0.73;0.73;;;1.10;99.90;;;;;;5246135;28;20342;-76
2021/12/11 00:46:26;;;;;;;0.80;0.80;;;1.10;99.90;;;;;;5263391;28;20039;-77
2021/12/11 00:49:21;;;;;;;0.60;0.60;;;1.20;99.90;;;;;;5245013;28;20027;-76
2021/12/11 00:51:54;;;;;;;1.92;1.80;;;1.20;99.90;;;;;;5267416;28;20364;-76
2021/12/11 00:54:27;;;;;;;1.17;1.17;;;1.10;99.90;;;;;;5271061;28;20050;-76
2021/12/11 00:56:58;;;;;;;0.75;0.75;;;1.10;99.90;;;;;;5263188;28;20139;-77
2021/12/11 00:59:29;;;;;;;0.68;0.68;;;1.20;99.90;;;;;;5240205;28;20040;-77
2021/12/11 01:02:03;;;;;;;1.02;1.02;;;1.30;99.90;;;;;;5242583;28;20071;-76
2021/12/11 01:04:43;;;;;;;0.70;0.70;;;1.10;99.90;;;;;;5241715;28;20110;-78
2021/12/11 01:07:22;;;;;;;1.10;1.10;;;1.10;99.90;;;;;;5254969;28;20024;-77
2021/12/11 01:10:24;;;;;;;1.27;1.17;;;1.20;99.90;;;;;;5242468;28;20036;-76
2021/12/11 01:13:02;;;;;;;0.43;0.43;;;1.20;99.90;;;;;;5248910;28;20085;-77
2021/12/11 01:15:46;;;;;;;0.75;0.75;;;1.30;99.90;;;;;;5224136;28;20024;-78
2021/12/11 01:18:33;;;;;;;1.10;1.10;;;1.30;99.90;;;;;;5244495;28;20088;-75
2021/12/11 01:21:41;;;;;;;0.77;0.77;;;1.30;99.90;;;;;;5260801;28;20055;-76
2021/12/11 01:27:16;;;;;;;1.40;1.40;;;1.10;99.90;;;;;;5241733;28;20250;-78
2021/12/11 01:29:50;;;;;;;0.68;0.68;;;1.00;99.90;;;;;;5225194;28;20607;-77
2021/12/11 01:32:21;;;;;;;1.08;1.08;;;1.00;99.90;;;;;;5244948;28;20081;-76
2021/12/11 01:34:56;;;;;;;0.80;0.80;;;1.10;99.90;;;;;;5260038;28;20027;-77
2021/12/11 01:37:30;;;;;;;1.48;1.42;;;1.20;99.90;;;;;;5241469;28;20028;-77
2021/12/11 01:40:10;;;;;;;0.77;0.77;;;1.20;99.90;;;;;;5255581;28;20112;-76
2021/12/11 01:42:42;;;;;;;0.50;0.50;;;1.20;99.90;;;;;;5282817;28;20066;-77
2021/12/11 01:45:16;;;;;;;0.70;0.70;;;1.30;99.90;;;;;;5288598;27;20035;-78
2021/12/11 01:47:48;;;;;;;0.73;0.73;;;1.30;99.90;;;;;;5298377;27;20034;-79
2021/12/11 01:50:30;;;;;;;0.73;0.73;;;1.10;99.90;;;;;;5307257;27;20236;-78
2021/12/11 01:53:09;;;;;;;0.80;0.80;;;1.00;99.90;;;;;;5303903;27;20355;-78
2021/12/11 01:56:06;;;;;;;0.43;0.43;;;0.90;99.90;;;;;;5293940;27;20035;-78
2021/12/11 01:58:57;;;;;;;1.25;1.25;;;1.00;99.90;;;;;;5277753;28;20111;-77
2021/12/11 02:02:05;;;;;;;0.57;0.57;;;1.00;99.90;;;;;;5279756;28;20091;-77
2021/12/11 02:04:45;;;;;;;0.80;0.80;;;1.10;99.90;;;;;;5281511;28;20085;-77
2021/12/11 02:07:30;;;;;;;0.93;0.93;;;1.20;99.90;;;;;;5300621;27;20038;-79
2021/12/11 02:10:01;;;;;;;1.98;1.88;;;1.10;99.90;;;;;;5283881;28;20038;-76
2021/12/11 02:12:43;;;;;;;0.82;0.82;;;1.20;99.90;;;;;;5264401;28;20035;-77
2021/12/11 02:15:29;;;;;;;0.63;0.63;;;1.30;99.90;;;;;;5278214;28;20026;-77
2021/12/11 02:18:32;;;;;;;0.60;0.60;;;1.10;99.90;;;;;;5301898;28;20039;-78
2021/12/11 02:21:17;;;;;;;0.63;0.63;;;1.10;99.90;;;;;;5291539;27;20097;-77
2021/12/11 02:24:03;;;;;;;0.63;0.63;;;1.10;99.90;;;;;;5305422;27;20170;-76
2021/12/11 02:26:56;;;;;;;0.57;0.57;;;1.20;99.90;;;;;;5314878;27;20325;-78
2021/12/11 02:30:16;;;;;;;1.35;1.35;;;1.20;99.90;;;;;;5284391;28;20019;-78
2021/12/11 02:33:17;;;;;;;1.85;1.55;;;1.10;99.90;;;;;;5270462;27;20066;-78
2021/12/11 02:36:01;;;;;;;1.30;1.30;;;0.90;99.90;;;;;;5297533;27;20027;-78
2021/12/11 02:38:59;;;;;;;0.45;0.45;;;0.90;99.90;;;;;;5307582;27;20046;-78
2021/12/11 02:41:51;;;;;;;0.90;0.90;;;1.00;99.90;;;;;;5256442;28;20029;-77
2021/12/11 02:44:50;;;;;;;0.93;0.93;;;1.10;99.90;;;;;;5259791;28;20034;-78
2021/12/11 02:47:28;;;;;;;0.90;0.90;;;1.10;99.90;;;;;;5268737;28;20039;-77
2021/12/11 02:50:28;;;;;;;2.90;2.78;;;1.20;99.90;;;;;;5266715;28;20042;-77
2021/12/11 02:53:22;;;;;;;0.60;0.60;;;1.20;99.90;;;;;;5243123;28;20604;-77
2021/12/11 02:56:35;;;;;;;3.35;3.05;;;1.20;99.90;;;;;;5263973;28;20024;-78
2021/12/11 02:59:15;;;;;;;0.68;0.68;;;1.10;99.90;;;;;;5264624;28;20099;-77
2021/12/11 03:02:01;;;;;;;0.88;0.88;;;1.20;99.90;;;;;;5254159;28;20108;-77
2021/12/11 03:04:48;;;;;;;1.15;1.15;;;1.20;99.90;;;;;;5244614;28;20036;-77
2021/12/11 03:07:34;;;;;;;1.27;1.25;;;1.20;99.90;;;;;;5258704;28;20077;-78
2021/12/11 03:10:13;;;;;;;0.55;0.55;;;1.20;99.90;;;;;;5229490;28;20024;-77
2021/12/11 03:12:47;;;;;;;0.60;0.60;;;1.20;99.90;;;;;;5259286;28;20038;-77
2021/12/11 03:15:21;;;;;;;1.63;1.63;;;1.20;99.90;;;;;;5265087;28;20126;-76
2021/12/11 03:17:52;;;;;;;1.23;1.23;;;1.00;99.90;;;;;;5264727;28;20575;-76
2021/12/11 03:20:27;;;;;;;0.50;0.50;;;0.80;99.90;;;;;;5264342;28;20391;-76
2021/12/11 03:22:57;;;;;;;;;;;0.80;99.90;;;;;;5247405;28;20016;-77
2021/12/11 03:25:30;;;;;;;1.10;1.10;;;0.80;99.90;;;;;;5244810;28;19913;-76
2021/12/11 03:28:04;;;;;;;0.77;0.77;;;0.90;99.90;;;;;;5243889;28;20031;-78
2021/12/11 03:30:56;;;;;;;1.95;1.85;;;1.10;99.90;;;;;;5267410;28;20038;-77
2021/12/11 03:33:37;;;;;;;0.50;0.50;;;1.20;99.90;;;;;;5246776;28;20409;-77
2021/12/11 03:36:14;;;;;;;0.60;0.60;;;1.10;99.90;;;;;;5244288;28;20029;-78
2021/12/11 03:38:53;;;;;;;3.53;2.15;;;1.20;99.90;;;;;;5257128;28;20094;-80
2021/12/11 03:41:26;;;;;;;2.17;2.08;;;1.30;99.90;;;;;;5247481;28;20721;-76
2021/12/11 03:44:05;;;;;;;1.50;1.35;;;1.30;99.90;;;;;;5257942;28;20032;-76
2021/12/11 03:46:40;;;;;;;2.20;2.00;;;1.20;99.90;;;;;;5245474;28;20036;-76
2021/12/11 03:49:18;;;;;;;0.75;0.75;;;1.20;99.90;;;;;;5242826;28;20103;-76
2021/12/11 03:51:54;;;;;;;0.73;0.73;;;1.20;99.90;;;;;;5242322;28;20047;-77
2021/12/11 03:54:30;;;;;;;0.63;0.63;;;1.20;99.90;;;;;;5241203;28;20044;-76
2021/12/11 03:57:06;;;;;;;0.70;0.70;;;1.30;99.90;;;;;;5250859;28;20058;-78
2021/12/11 03:59:37;;;;;;;1.52;1.52;;;1.20;99.90;;;;;;5263822;28;20035;-76
2021/12/11 04:02:14;;;;;;;0.50;0.50;;;1.30;99.90;;;;;;5260860;28;20083;-76
2021/12/11 04:04:50;;;;;;;0.60;0.60;;;1.30;99.90;;;;;;5264327;28;20059;-77
2021/12/11 04:07:34;;;;;;;2.17;2.08;;;1.30;99.90;;;;;;5251847;28;20040;-77
2021/12/11 04:10:11;;;;;;;1.30;1.30;;;1.30;99.90;;;;;;5256019;28;20028;-77
2021/12/11 04:12:43;;;;;;;1.90;1.80;;;1.30;99.90;;;;;;5257042;28;20034;-78
2021/12/11 04:15:15;;;;;;;0.73;0.73;;;1.30;99.90;;;;;;5246756;28;20065;-77
2021/12/11 04:17:49;;;;;;;0.60;0.60;;;1.30;99.90;;;;;;5263480;28;20264;-77
2021/12/11 04:20:23;;;;;;;0.98;0.98;;;1.30;99.90;;;;;;5264190;28;20353;-76
2021/12/11 04:22:55;;;;;;;0.88;0.88;;;1.30;99.90;;;;;;5259484;28;20108;-77
2021/12/11 04:25:31;;;;;;;0.70;0.70;;;1.30;99.90;;;;;;5263742;28;20099;-78
2021/12/11 04:28:05;;;;;;;1.20;1.20;;;1.20;99.90;;;;;;5262139;28;20020;-77
2021/12/11 04:30:37;;;;;;;1.08;1.08;;;1.10;99.90;;;;;;5265612;28;20404;-78
2021/12/11 04:33:08;;;;;;;0.73;0.73;;;1.10;99.90;;;;;;5246618;28;20085;-77
2021/12/11 04:35:43;;;;;;;0.68;0.68;;;1.10;99.90;;;;;;5245090;28;20528;-77
2021/12/11 04:38:15;;;;;;;;;;;1.20;99.90;;;;;;5211155;28;20499;-77
2021/12/11 04:40:53;;;;;;;1.50;1.50;;;1.20;99.90;;;;;;5261226;28;19923;-76
2021/12/11 04:43:25;;;;;;;0.90;0.90;;;1.20;99.90;;;;;;5263448;28;20399;-77
2021/12/11 04:46:08;;;;;;;0.50;0.50;;;1.20;99.90;;;;;;5265416;28;20034;-76
2021/12/11 04:49:02;;;;;;;0.82;0.82;;;1.30;99.90;;;;;;5263921;28;20040;-78
2021/12/11 04:51:45;;;;;;;1.48;1.38;;;1.20;99.90;;;;;;5260944;28;20069;-76
2021/12/11 04:57:11;;;;;;;1.27;1.27;;;1.10;99.90;;;;;;5260278;28;20032;-77
2021/12/11 05:00:07;;;;;;;0.93;0.93;;;1.10;99.90;;;;;;5261780;28;20032;-78
2021/12/11 05:11:08;;;;;;;1.00;1.00;;;1.10;99.90;;;;;;5254252;28;20386;-78
2021/12/11 05:13:39;;;;;;;0.98;0.98;;;1.20;99.90;;;;;;5259728;28;20028;-78
2021/12/11 05:16:16;;;;;;;0.75;0.75;;;1.10;99.90;;;;;;5241628;28;20028;-78
2021/12/11 05:18:47;;;;;;;1.05;1.05;;;1.20;99.90;;;;;;5240197;28;20356;-78
2021/12/11 05:21:20;;;;;;;0.77;0.77;;;1.20;99.90;;;;;;5243476;28;20032;-77
2021/12/11 05:23:55;;;;;;;1.00;1.00;;;1.20;99.90;;;;;;5274882;28;20048;-77
2021/12/11 05:26:26;;;;;;;2.38;2.28;;;1.10;99.90;;;;;;5278917;28;20174;-79
2021/12/11 05:28:57;;;;;;;1.00;1.00;;;1.20;99.90;;;;;;5278204;28;20031;-78
2021/12/11 05:31:29;;;;;;;1.17;1.13;;;1.10;99.90;;;;;;5271355;28;20492;-78
2021/12/11 05:34:04;;;;;;;1.13;1.13;;;1.10;99.90;;;;;;5264263;28;20104;-77
2021/12/11 05:36:41;;;;;;;0.98;0.98;;;1.20;99.90;;;;;;5260067;28;20074;-77
2021/12/11 05:39:17;;;;;;;0.77;0.77;;;1.20;99.90;;;;;;5257360;28;20086;-77
2021/12/11 05:41:50;;;;;;;0.80;0.80;;;1.00;99.90;;;;;;5255314;28;20028;-76
2021/12/11 05:44:26;;;;;;;1.10;1.10;;;1.00;99.90;;;;;;5245121;28;20040;-78
2021/12/11 05:46:56;;;;;;;0.90;0.88;;;1.10;99.90;;;;;;5240302;28;20043;-77
2021/12/11 05:49:29;;;;;;;1.45;1.45;;;1.20;99.90;;;;;;5242477;28;20048;-77
2021/12/11 05:52:04;;;;;;;0.82;0.82;;;1.30;99.90;;;;;;5257614;28;20036;-77
2021/12/11 05:54:40;;;;;;;1.98;1.88;;;1.30;99.90;;;;;;5262049;28;20531;-77
2021/12/11 05:57:16;;;;;;;0.73;0.73;;;1.10;99.90;;;;;;5260302;28;20039;-77
2021/12/11 05:59:54;;;;;;;0.47;0.47;;;1.20;99.90;;;;;;5259303;28;20035;-77
2021/12/11 06:02:28;;;;;;;0.50;0.50;;;1.20;99.90;;;;;;5260479;28;20038;-78
2021/12/11 06:05:00;;;;;;;;;;;1.30;99.90;;;;;;5256173;28;20021;-77
2021/12/11 06:07:32;;;;;;;1.25;1.25;;;1.40;99.90;;;;;;5247292;28;19948;-77
2021/12/11 06:10:13;;;;;;;3.80;2.67;;;1.50;99.90;;;;;;5259668;28;20028;-76
2021/12/11 06:12:54;;;;;;;0.50;0.50;;;1.30;99.90;;;;;;5258760;28;20020;-78
2021/12/11 06:15:29;;;;;;;1.85;1.75;;;1.20;99.90;;;;;;5261967;28;20867;-77
2021/12/11 06:18:04;;;;;;;1.63;1.55;;;1.20;99.90;;;;;;5255966;28;20502;-76
2021/12/11 06:20:35;;;;;;;1.08;1.02;;;1.30;99.90;;;;;;5240386;28;20322;-76
2021/12/11 06:23:09;;;;;;;0.77;0.77;;;1.30;99.90;;;;;;5245062;28;20145;-76
2021/12/11 06:25:40;;;;;;;0.73;0.73;;;1.30;99.90;;;;;;5239516;28;20381;-78
2021/12/11 06:28:13;;;;;;;1.40;1.40;;;1.30;99.90;;;;;;5245833;28;20272;-76
2021/12/11 06:30:45;;;;;;;0.70;0.70;;;1.30;99.90;;;;;;5260616;28;20252;-76
2021/12/11 06:33:16;;;;;;;1.50;1.50;;;1.10;99.90;;;;;;5258840;28;20098;-76
2021/12/11 06:35:52;;;;;;;1.23;1.23;;;1.00;99.90;;;;;;5259787;28;20016;-76
2021/12/11 06:38:31;;;;;;;0.60;0.60;;;0.90;99.90;;;;;;5252633;28;20036;-78
2021/12/11 06:41:06;;;;;;;2.35;2.25;;;0.90;99.90;;;;;;5243192;28;20512;-76
2021/12/11 06:43:38;;;;;;;1.75;1.65;;;0.80;99.90;;;;;;5261920;28;20287;-76
2021/12/11 06:46:09;;;;;;;1.13;1.13;;;0.90;99.90;;;;;;5254495;28;20369;-76
2021/12/11 06:48:46;;;;;;;0.90;0.90;;;1.00;99.90;;;;;;5248383;28;20024;-76
2021/12/11 06:51:19;;;;;;;1.67;1.58;;;1.00;99.90;;;;;;5225060;28;20039;-77
2021/12/11 06:54:10;;;;;;;1.65;1.65;;;1.10;99.90;;;;;;5259593;28;20044;-77
2021/12/11 06:56:42;;;;;;;1.90;1.73;;;1.00;99.90;;;;;;5242862;28;20430;-76
2021/12/11 06:59:13;;;;;;;2.88;2.05;;;0.90;99.90;;;;;;5240621;28;20040;-76
2021/12/11 07:01:46;;;;;;;1.60;1.55;;;0.90;99.90;;;;;;5255333;28;20044;-77
2021/12/11 07:04:20;;;;;;;0.75;0.75;;;0.80;99.90;;;;;;5260560;28;20108;-78
2021/12/11 07:06:56;;;;;;;1.30;1.30;;;0.80;99.90;;;;;;5259906;28;20040;-77
2021/12/11 07:09:28;;;;;;;0.80;0.80;;;0.90;99.90;;;;;;5262695;28;20387;-76
2021/12/11 07:12:03;;;;;;;0.95;0.95;;;0.90;99.90;;;;;;5246719;28;20225;-78
2021/12/11 07:14:34;;;;;;;1.15;1.15;;;1.00;99.90;;;;;;5255124;28;20226;-77
2021/12/11 07:17:05;;;;;;;0.95;0.95;;;1.10;99.90;;;;;;5230099;28;20144;-77
2021/12/11 07:19:38;;;;;;;2.13;1.67;;;1.30;99.90;;;;;;5254605;28;20038;-77
2021/12/11 07:22:12;;;;;;;0.80;0.80;;;1.30;99.90;;;;;;5245789;28;20047;-77
2021/12/11 07:24:49;;;;;;;;;;;1.40;99.90;;;;;;5265283;28;20066;-77
2021/12/11 07:27:22;;;;;;;0.63;0.63;;;1.60;99.90;;;;;;5265055;28;19923;-79
2021/12/11 07:29:56;;;;;;;1.10;1.10;;;1.50;99.90;;;;;;5263806;28;20038;-76
2021/12/11 07:32:27;;;;;;;2.45;2.35;;;1.50;99.90;;;;;;5262686;28;20256;-77
2021/12/11 07:34:58;;;;;;;1.20;1.20;;;1.30;99.90;;;;;;5261953;28;20028;-77
2021/12/11 07:37:29;;;;;;;1.17;1.17;;;1.40;99.90;;;;;;5261565;28;20095;-77
2021/12/11 07:40:02;;;;;;;1.08;1.08;;;1.40;99.90;;;;;;5278736;27;20333;-77
2021/12/11 07:42:37;;;;;;;0.95;0.90;;;1.50;99.90;;;;;;5267412;27;20186;-77
2021/12/11 07:45:12;;;;;;;0.60;0.60;;;1.40;99.90;;;;;;5305550;27;20038;-79
2021/12/11 07:47:43;;;;;;;1.35;1.35;;;1.40;99.90;;;;;;5286474;27;20023;-77
2021/12/11 07:50:14;;;;;;;2.10;2.00;;;1.40;99.90;;;;;;5303339;27;20061;-77
2021/12/11 07:52:47;;;;;;;0.90;0.90;;;1.50;99.90;;;;;;5305273;27;20102;-77
2021/12/11 07:55:22;;;;;;;1.20;1.20;;;1.60;99.90;;;;;;5287379;27;20023;-77
2021/12/11 07:57:56;;;;;;;1.27;1.27;;;1.60;99.90;;;;;;5282031;27;20529;-76
2021/12/11 08:00:29;;;;;;;0.60;0.60;;;1.70;99.90;;;;;;5289604;27;20031;-77
2021/12/11 08:03:03;;;;;;;2.80;2.67;;;1.70;99.90;;;;;;5304685;27;20031;-78
2021/12/11 08:05:41;;;;;;;0.93;0.93;;;1.70;99.90;;;;;;5303858;27;20062;-76
2021/12/11 08:08:15;;;;;;;2.47;2.28;;;1.80;99.90;;;;;;5284949;28;20043;-78
2021/12/11 08:10:56;;;;;;;2.45;2.35;;;1.90;99.90;;;;;;5256206;27;20034;-79
2021/12/11 08:13:33;;;;;;;1.15;1.15;;;2.10;99.90;;;;;;5287730;27;20019;-73
2021/12/11 08:16:05;;;;;;;2.63;2.53;;;2.20;99.90;;;;;;5306298;27;20152;-74
2021/12/11 08:18:36;;;;;;;4.72;3.60;;;2.30;99.90;;;;;;5305279;27;20038;-74
2021/12/11 08:21:07;;;;;;;1.65;1.65;;;2.40;99.90;;;;;;5293186;27;20110;-76
2021/12/11 08:23:43;;;;;;;1.00;1.00;;;2.40;99.90;;;;;;5308770;27;20030;-76
2021/12/11 08:26:21;;;;;;;1.88;1.77;;;2.50;99.90;;;;;;5290149;27;20031;-79
2021/12/11 08:28:53;;;;;;;0.40;0.40;;;2.50;99.90;;;;;;5310469;27;20023;-76
2021/12/11 08:31:27;;;;;;;0.95;0.95;;;2.70;99.90;;;;;;5305130;27;20035;-77
2021/12/11 08:33:58;;;;;;;2.55;2.45;;;2.70;99.90;;;;;;5304885;27;20065;-77
2021/12/11 08:36:29;;;;;;;0.85;0.85;;;2.60;99.90;;;;;;5306425;27;20449;-76
2021/12/11 08:39:05;;;;;;;1.15;1.15;;;2.70;99.90;;;;;;5286726;27;20489;-78
2021/12/11 08:41:39;;;;;;;1.58;1.58;;;2.80;99.90;;;;;;5254000;28;20043;-76
2021/12/11 08:44:13;;;;;;;0.80;0.80;;;2.50;99.90;;;;;;5263480;28;20020;-77
2021/12/11 08:46:52;;;;;;;0.82;0.82;;;2.60;99.90;;;;;;5249182;28;20048;-78
2021/12/11 08:49:29;;;;;;;0.50;0.50;;;2.60;99.90;;;;;;5259188;28;20028;-77
2021/12/11 08:52:27;;;;;;;0.90;0.90;;;2.40;99.90;;;;;;5260980;28;20027;-77
2021/12/11 08:54:59;;;;;;;0.88;0.88;;;2.50;99.90;;;;;;5261903;28;20036;-76
2021/12/11 08:57:42;;;;;;;1.48;1.48;;;2.30;99.90;;;;;;5260018;28;20450;-77
2021/12/11 09:00:29;;;;;;;0.98;0.98;;;2.00;99.90;;;;;;5255972;28;20032;-77
2021/12/11 09:03:11;;;;;;;0.70;0.70;;;1.70;99.90;;;;;;5262376;28;20048;-76
2021/12/11 09:05:54;;;;;;;0.50;0.50;;;1.80;99.90;;;;;;5260410;28;20028;-77
2021/12/11 09:08:46;;;;;;;1.13;1.13;;;1.90;99.90;;;;;;5262418;28;20024;-77
2021/12/11 09:11:33;;;;;;;2.72;2.63;;;2.00;99.90;;;;;;5260285;28;20031;-77
2021/12/11 09:14:31;;;;;;;0.88;0.88;;;2.10;99.90;;;;;;5242145;28;20259;-77
2021/12/11 09:17:33;;;;;;;0.60;0.60;;;2.20;99.90;;;;;;5251224;28;20031;-79
2021/12/11 09:20:15;;;;;;;0.77;0.77;;;2.10;99.90;;;;;;5264624;28;20406;-77
2021/12/11 09:23:15;;;;;;;1.73;1.13;;;2.30;99.90;;;;;;5250327;28;20049;-79
2021/12/11 09:26:02;;;;;;;1.38;1.38;;;2.40;99.90;;;;;;5246156;28;20044;-79
2021/12/11 09:28:55;;;;;;;1.38;1.38;;;2.30;99.90;;;;;;5256083;28;20020;-81
2021/12/11 09:31:43;;;;;;;1.25;1.25;;;2.00;99.90;;;;;;5262400;28;20114;-78
2021/12/11 09:34:23;;;;;;;1.88;1.77;;;2.20;99.90;;;;;;5263496;28;20451;-79
2021/12/11 09:36:58;;;;;;;0.70;0.70;;;2.10;99.90;;;;;;5258324;28;20024;-80
2021/12/11 09:39:56;;;;;;;1.10;1.10;;;1.70;99.90;;;;;;5246992;28;20086;-79
2021/12/11 09:42:27;;;;;;;1.13;1.13;;;1.70;99.90;;;;;;5252070;28;20053;-79
2021/12/11 09:45:27;;;;;;;2.30;2.10;;;1.90;99.90;;;;;;5260024;28;20025;-78
2021/12/11 09:48:08;;;;;;;0.73;0.73;;;2.10;99.90;;;;;;5242620;28;20044;-79
2021/12/11 09:50:50;;;;;;;0.80;0.80;;;2.50;99.90;;;;;;5250107;28;20059;-78
2021/12/11 09:53:27;;;;;;;1.35;1.35;;;2.80;99.90;;;;;;5257599;28;20107;-79
2021/12/11 09:56:04;;;;;;;0.82;0.82;;;3.00;99.90;;;;;;5260172;28;20591;-78
2021/12/11 09:58:38;;;;;;;1.10;1.10;;;3.10;99.90;;;;;;5259653;28;20040;-80
2021/12/11 10:01:16;;;;;;;1.88;1.77;;;3.10;99.90;;;;;;5260314;28;20091;-79
2021/12/11 10:03:57;;;;;;;1.40;1.40;;;3.30;99.90;;;;;;5240829;28;20103;-79
2021/12/11 10:06:40;;;;;;;1.42;1.42;;;3.30;99.90;;;;;;5242040;28;20089;-79
2021/12/11 10:09:28;;;;;;;1.15;1.13;;;3.40;99.90;;;;;;5261057;28;20043;-81
2021/12/11 10:12:09;;;;;;;0.55;0.55;;;3.10;99.90;;;;;;5276251;28;20325;-79
2021/12/11 10:14:54;;;;;;;0.60;0.60;;;3.10;99.90;;;;;;5256111;28;20027;-79
2021/12/11 10:17:37;;;;;;;2.05;1.95;;;3.10;99.90;;;;;;5262369;28;20035;-79
2021/12/11 10:20:27;;;;;;;0.60;0.60;;;2.90;99.90;;;;;;5257215;28;20039;-79
2021/12/11 10:23:03;;;;;;;1.60;1.60;;;3.10;99.90;;;;;;5240940;28;20036;-80
2021/12/11 10:25:37;;;;;;;1.40;1.40;;;3.30;99.90;;;;;;5253348;28;20080;-79
2021/12/11 10:28:17;;;;;;;1.02;1.02;;;3.30;99.90;;;;;;5248426;28;20067;-79
2021/12/11 10:31:07;;;;;;;2.92;2.83;;;3.30;99.90;;;;;;5241729;28;20024;-79
2021/12/11 10:33:41;;;;;;;1.98;1.88;;;3.40;99.90;;;;;;5242295;28;20379;-79
2021/12/11 10:36:16;;;;;;;1.70;1.65;;;3.50;99.90;;;;;;5256456;28;20026;-78
2021/12/11 10:38:51;;;;;;;1.73;1.67;;;3.40;99.90;;;;;;5244573;28;20041;-78
2021/12/11 10:41:25;;;;;;;;;;;3.30;99.90;;;;;;5254896;28;20046;-79
2021/12/11 10:44:06;;;;;;;1.48;1.48;;;3.10;99.90;;;;;;5245968;28;19917;-78
2021/12/11 10:46:46;;;;;;;0.80;0.80;;;3.10;99.90;;;;;;5250032;28;20057;-81
2021/12/11 10:49:19;;;;;;;1.30;1.20;;;3.40;99.90;;;;;;5265239;28;20028;-81
2021/12/11 10:51:57;;;;;;;2.15;2.05;;;3.60;99.90;;;;;;5260728;28;20029;-78
2021/12/11 10:54:29;;;;;;;1.25;1.25;;;3.70;99.90;;;;;;5262305;28;20109;-80
2021/12/11 10:57:00;;;;;;;1.35;1.25;;;3.80;99.90;;;;;;5241279;28;20037;-82
2021/12/11 10:59:38;;;;;;;1.10;1.10;;;3.70;99.90;;;;;;5272128;28;20053;-81
2021/12/11 11:02:23;;;;;;;2.60;2.40;;;3.70;99.90;;;;;;5275065;28;20023;-79
2021/12/11 11:05:11;;;;;;;1.45;1.45;;;3.70;99.90;;;;;;5256303;28;20020;-81
2021/12/11 11:07:45;;;;;;;0.80;0.80;;;3.60;99.90;;;;;;5243497;28;20098;-78
2021/12/11 11:10:26;;;;;;;2.13;2.05;;;3.60;99.90;;;;;;5260498;28;20044;-78
2021/12/11 11:13:01;;;;;;;1.58;1.58;;;3.60;99.90;;;;;;5264441;28;20020;-81
2021/12/11 11:15:35;;;;;;;1.55;1.55;;;3.80;99.90;;;;;;5265866;28;20380;-80
2021/12/11 11:18:11;;;;;;;;;;;4.00;99.90;;;;;;5249653;28;20037;-80
2021/12/11 11:21:07;;;;;;;1.42;1.42;;;4.30;99.90;;;;;;5244776;28;19916;-79
2021/12/11 11:23:46;;;;;;;1.98;1.88;;;4.50;99.90;;;;;;5242724;28;20028;-79
2021/12/11 11:26:35;;;;;;;1.35;1.35;;;4.60;99.90;;;;;;5269528;28;20039;-77
2021/12/11 11:29:20;;;;;;;1.85;1.75;;;4.70;99.90;;;;;;5274924;28;20051;-82
2021/12/11 11:31:59;;;;;;;3.00;2.78;;;4.60;99.90;;;;;;5250791;28;20295;-80
2021/12/11 11:34:31;;;;;;;1.77;1.70;;;4.60;99.90;;;;;;5271159;28;20040;-81
2021/12/11 11:37:03;;;;;;;2.25;2.15;;;4.70;99.90;;;;;;5260608;28;20078;-80
2021/12/11 11:39:38;;;;;;;1.08;1.08;;;4.80;99.90;;;;;;5266334;28;20083;-83
2021/12/11 11:42:13;;;;;;;;;;;5.00;99.90;;;;;;5262152;28;20366;-82
2021/12/11 11:44:45;;;;;;;2.15;1.10;;;5.40;99.90;;;;;;5265600;28;19991;-79
2021/12/11 11:47:18;;;;;;;3.45;3.25;;;5.60;99.90;;;;;;5266357;28;20043;-81
2021/12/11 11:49:56;;;;;;;2.10;1.77;;;5.60;99.90;;;;;;5265416;28;20492;-80
2021/12/11 11:52:29;;;;;;;1.67;1.67;;;4.90;99.90;;;;;;5237096;28;20417;-79
2021/12/11 11:55:06;;;;;;;2.25;2.15;;;4.00;99.90;;;;;;5264089;28;20040;-79
2021/12/11 11:57:43;;;;;;;1.95;1.90;;;3.50;99.90;;;;;;5267325;28;20236;-82
2021/12/11 12:00:39;;;;;;;0.65;0.65;;;3.40;99.90;;;;;;5270362;28;20020;-81
2021/12/11 12:03:21;;;;;;;1.15;1.15;;;3.30;99.90;;;;;;5266395;28;20020;-81
2021/12/11 12:06:03;;;;;;;0.90;0.90;;;3.50;99.90;;;;;;5264501;28;20036;-79
2021/12/11 12:08:37;;;;;;;1.35;1.25;;;3.70;99.90;;;;;;5255597;28;20026;-79
2021/12/11 12:11:09;;;;;;;1.63;1.63;;;3.80;99.90;;;;;;5261201;28;20025;-80
2021/12/11 12:13:41;;;;;;;2.25;2.15;;;3.50;99.90;;;;;;5261847;28;20032;-78
2021/12/11 12:16:14;;;;;;;1.63;1.52;;;3.40;99.90;;;;;;5251357;28;20101;-79
2021/12/11 12:18:45;;;;;;;1.90;1.85;;;3.60;99.90;;;;;;5265010;28;20027;-80
2021/12/11 12:21:21;;;;;;;1.65;1.63;;;3.90;99.90;;;;;;5265109;28;20028;-81
2021/12/11 12:23:59;;;;;;;1.92;1.83;;;4.10;99.90;;;;;;5263631;28;20024;-79
2021/12/11 12:26:34;;;;;;;2.08;1.98;;;4.30;99.90;;;;;;5261793;28;20047;-79
2021/12/11 12:29:12;;;;;;;1.50;1.50;;;4.50;99.90;;;;;;5258293;28;20062;-79
2021/12/11 12:32:06;;;;;;;3.50;2.83;;;4.70;99.90;;;;;;5260291;28;20027;-79
2021/12/11 12:34:42;;;;;;;0.65;0.65;;;4.80;99.90;;;;;;5257141;28;20044;-79
2021/12/11 12:37:17;;;;;;;1.60;1.50;;;4.90;99.90;;;;;;5261165;28;20028;-79
2021/12/11 12:39:56;;;;;;;2.38;2.28;;;4.90;99.90;;;;;;5277209;27;20136;-79
2021/12/11 12:42:54;;;;;;;0.82;0.82;;;5.00;99.90;;;;;;5261460;28;20035;-78
2021/12/11 12:45:47;;;;;;;1.55;1.45;;;5.10;99.90;;;;;;5286659;27;20024;-80
2021/12/11 12:48:22;;;;;;;1.35;1.35;;;4.80;99.90;;;;;;5269593;28;20030;-80
2021/12/11 12:51:02;;;;;;;1.80;1.70;;;4.90;99.90;;;;;;5304448;27;20050;-79
2021/12/11 12:53:40;;;;;;;1.88;1.77;;;4.90;99.90;;;;;;5324437;27;20602;-78
2021/12/11 12:56:29;;;;;;;1.70;1.60;;;4.80;99.90;;;;;;5274678;27;20019;-79
2021/12/11 12:59:13;;;;;;;1.15;1.15;;;4.80;99.90;;;;;;5289545;27;20110;-79
2021/12/11 13:02:10;;;;;;;1.13;1.13;;;4.90;99.90;;;;;;5292004;27;20087;-79
2021/12/11 13:04:59;;;;;;;1.40;1.38;;;5.00;99.90;;;;;;5287971;27;20079;-81
2021/12/11 13:07:30;;;;;;;0.95;0.95;;;5.00;99.90;;;;;;5270234;27;20027;-79
2021/12/11 13:10:11;;;;;;;1.48;1.48;;;4.90;99.90;;;;;;5268389;27;20268;-79
2021/12/11 13:12:47;;;;;;;1.10;1.10;;;5.00;99.90;;;;;;5284852;27;20038;-80
2021/12/11 13:15:36;;;;;;;1.05;1.05;;;5.10;99.90;;;;;;5277090;27;20035;-81
2021/12/11 13:18:19;;;;;;;1.30;1.30;;;5.20;99.90;;;;;;5271570;27;20038;-81
2021/12/11 13:21:07;;;;;;;1.23;1.23;;;5.20;99.90;;;;;;5284406;27;20039;-81
2021/12/11 13:23:50;;;;;;;1.90;1.80;;;5.10;99.90;;;;;;5297548;27;20465;-81
2021/12/11 13:26:32;;;;;;;2.15;2.05;;;5.20;99.90;;;;;;5289175;27;20188;-81
2021/12/11 13:29:12;;;;;;;1.75;1.73;;;5.10;99.90;;;;;;5289814;27;20031;-80
2021/12/11 13:31:54;;;;;;;4.25;4.05;;;4.70;99.90;;;;;;5300717;27;20098;-79
2021/12/11 13:34:27;;;;;;;2.13;1.98;;;4.60;99.90;;;;;;5265912;27;20113;-82
2021/12/11 13:37:06;;;;;;;3.65;3.35;;;4.40;99.90;;;;;;5288793;27;20322;-79
2021/12/11 13:39:41;;;;;;;0.70;0.70;;;4.20;99.90;;;;;;5286930;27;20090;-78
2021/12/11 13:42:19;;;;;;;1.25;1.25;;;4.10;99.90;;;;;;5261655;27;20509;-81
2021/12/11 13:44:59;;;;;;;0.93;0.93;;;4.10;99.90;;;;;;5265817;27;20546;-79
2021/12/11 13:47:35;;;;;;;0.63;0.63;;;4.10;99.90;;;;;;5269819;27;20035;-79
2021/12/11 13:50:17;;;;;;;0.63;0.63;;;4.10;99.90;;;;;;5254878;27;20087;-79
2021/12/11 13:52:53;;;;;;;0.93;0.93;;;4.00;99.90;;;;;;5288459;27;20023;-79
2021/12/11 13:55:27;;;;;;;2.65;0.98;;;4.00;99.90;;;;;;5273681;27;20034;-80
2021/12/11 13:58:01;;;;;;;0.60;0.60;;;3.90;99.90;;;;;;5290699;27;20015;-80
2021/12/11 14:00:41;;;;;;;0.50;0.50;;;3.90;99.90;;;;;;5289183;27;20026;-80
2021/12/11 14:03:20;;;;;;;0.40;0.40;;;3.80;99.90;;;;;;5253639;27;20106;-82
2021/12/11 14:05:58;;;;;;;0.40;0.40;;;3.80;99.90;;;;;;5289786;28;20362;-81
2021/12/11 14:08:37;;;;;;;1.02;1.02;;;3.70;99.90;;;;;;5277326;27;20031;-81
2021/12/11 14:11:18;;;;;;;0.65;0.65;;;3.70;99.90;;;;;;5267945;28;20022;-80
2021/12/11 14:13:55;;;;;;;0.73;0.73;;;3.60;99.90;;;;;;5275240;28;20194;-81